sensor_id;sensor_type;location;lat;lon;timestamp;pressure;altitude;pressure_sealevel;temperature;humidity
70127;BME280;57491;42.694;23.314;2023-05-17T00:00:10;94537.53;;;16.32;77.50
70127;BME280;57491;42.694;23.314;2023-05-17T00:02:38;94538.66;;;16.36;77.40
70127;BME280;57491;42.694;23.314;2023-05-17T00:05:07;94559.31;;;16.32;77.50
70127;BME280;57491;42.694;23.314;2023-05-17T00:07:36;94557.03;;;16.24;77.82
70127;BME280;57491;42.694;23.314;2023-05-17T00:10:03;94559.41;;;16.26;77.70
70127;BME280;57491;42.694;23.314;2023-05-17T00:12:30;94558.50;;;16.20;78.00
70127;BME280;57491;42.694;23.314;2023-05-17T00:14:58;94565.09;;;16.11;78.65
70127;BME280;57491;42.694;23.314;2023-05-17T00:17:26;94555.28;;;16.06;78.53
70127;BME280;57491;42.694;23.314;2023-05-17T00:19:53;94550.84;;;16.07;78.46
70127;BME280;57491;42.694;23.314;2023-05-17T00:22:20;94551.06;;;16.05;78.57
70127;BME280;57491;42.694;23.314;2023-05-17T00:24:47;94553.22;;;16.08;78.54
70127;BME280;57491;42.694;23.314;2023-05-17T00:27:14;94557.91;;;16.06;78.70
70127;BME280;57491;42.694;23.314;2023-05-17T00:29:41;94560.06;;;16.10;78.41
70127;BME280;57491;42.694;23.314;2023-05-17T00:32:09;94554.47;;;16.06;78.38
70127;BME280;57491;42.694;23.314;2023-05-17T00:34:37;94552.75;;;16.00;78.23
70127;BME280;57491;42.694;23.314;2023-05-17T00:37:04;94550.91;;;16.00;78.61
70127;BME280;57491;42.694;23.314;2023-05-17T00:39:31;94539.97;;;15.92;79.13
70127;BME280;57491;42.694;23.314;2023-05-17T00:41:59;94541.91;;;15.85;79.09
70127;BME280;57491;42.694;23.314;2023-05-17T00:44:26;94543.34;;;15.81;79.22
70127;BME280;57491;42.694;23.314;2023-05-17T00:46:53;94553.47;;;15.77;79.35
70127;BME280;57491;42.694;23.314;2023-05-17T00:49:20;94557.34;;;15.75;79.63
70127;BME280;57491;42.694;23.314;2023-05-17T00:51:49;94542.69;;;15.55;80.17
70127;BME280;57491;42.694;23.314;2023-05-17T00:54:17;94557.53;;;15.61;80.21
70127;BME280;57491;42.694;23.314;2023-05-17T00:56:44;94562.63;;;15.56;80.64
70127;BME280;57491;42.694;23.314;2023-05-17T00:59:12;94556.94;;;15.59;80.54
70127;BME280;57491;42.694;23.314;2023-05-17T01:01:40;94563.59;;;15.62;80.42
70127;BME280;57491;42.694;23.314;2023-05-17T01:04:09;94563.34;;;15.63;80.34
70127;BME280;57491;42.694;23.314;2023-05-17T01:06:36;94564.81;;;15.59;80.58
70127;BME280;57491;42.694;23.314;2023-05-17T01:09:06;94571.31;;;15.57;80.45
70127;BME280;57491;42.694;23.314;2023-05-17T01:11:38;94563.31;;;15.52;80.37
70127;BME280;57491;42.694;23.314;2023-05-17T01:14:18;94567.34;;;15.48;80.25
70127;BME280;57491;42.694;23.314;2023-05-17T01:16:52;94560.91;;;15.50;80.17
70127;BME280;57491;42.694;23.314;2023-05-17T01:19:38;94563.34;;;15.45;80.46
70127;BME280;57491;42.694;23.314;2023-05-17T01:22:14;94552.50;;;15.42;80.14
70127;BME280;57491;42.694;23.314;2023-05-17T01:24:52;94555.28;;;15.47;80.21
70127;BME280;57491;42.694;23.314;2023-05-17T01:27:24;94551.03;;;15.46;80.11
70127;BME280;57491;42.694;23.314;2023-05-17T01:29:53;94553.63;;;15.34;80.03
70127;BME280;57491;42.694;23.314;2023-05-17T01:32:23;94554.94;;;15.25;80.22
70127;BME280;57491;42.694;23.314;2023-05-17T01:34:50;94553.66;;;15.16;80.09
70127;BME280;57491;42.694;23.314;2023-05-17T01:37:17;94553.03;;;15.14;80.36
70127;BME280;57491;42.694;23.314;2023-05-17T01:39:45;94549.72;;;15.07;80.36
70127;BME280;57491;42.694;23.314;2023-05-17T01:42:15;94551.75;;;15.05;80.31
70127;BME280;57491;42.694;23.314;2023-05-17T01:44:51;94553.63;;;14.80;80.66
70127;BME280;57491;42.694;23.314;2023-05-17T01:47:28;94558.50;;;14.76;80.51
70127;BME280;57491;42.694;23.314;2023-05-17T01:49:58;94549.34;;;14.67;80.49
70127;BME280;57491;42.694;23.314;2023-05-17T01:52:28;94569.66;;;14.90;80.41
70127;BME280;57491;42.694;23.314;2023-05-17T01:55:04;94565.34;;;14.95;80.79
70127;BME280;57491;42.694;23.314;2023-05-17T01:57:35;94557.44;;;15.02;80.38
70127;BME280;57491;42.694;23.314;2023-05-17T02:00:06;94550.16;;;15.04;80.47
70127;BME280;57491;42.694;23.314;2023-05-17T02:02:35;94541.50;;;15.03;80.23
70127;BME280;57491;42.694;23.314;2023-05-17T02:05:02;94550.44;;;14.96;80.39
70127;BME280;57491;42.694;23.314;2023-05-17T02:07:29;94558.28;;;14.96;80.44
70127;BME280;57491;42.694;23.314;2023-05-17T02:09:56;94566.28;;;15.01;80.58
70127;BME280;57491;42.694;23.314;2023-05-17T02:12:23;94562.66;;;15.02;80.44
70127;BME280;57491;42.694;23.314;2023-05-17T02:14:51;94547.81;;;14.96;80.21
70127;BME280;57491;42.694;23.314;2023-05-17T02:17:19;94544.94;;;14.86;80.38
70127;BME280;57491;42.694;23.314;2023-05-17T02:19:46;94539.59;;;14.92;80.33
70127;BME280;57491;42.694;23.314;2023-05-17T02:22:13;94543.03;;;14.93;80.21
70127;BME280;57491;42.694;23.314;2023-05-17T02:24:40;94542.00;;;14.94;80.40
70127;BME280;57491;42.694;23.314;2023-05-17T02:27:07;94545.69;;;14.86;80.66
70127;BME280;57491;42.694;23.314;2023-05-17T02:29:34;94540.84;;;14.90;80.42
70127;BME280;57491;42.694;23.314;2023-05-17T02:32:01;94543.53;;;14.83;80.47
70127;BME280;57491;42.694;23.314;2023-05-17T02:34:29;94531.84;;;14.86;80.47
70127;BME280;57491;42.694;23.314;2023-05-17T02:36:56;94549.34;;;14.85;80.45
70127;BME280;57491;42.694;23.314;2023-05-17T02:39:23;94537.50;;;14.83;79.97
70127;BME280;57491;42.694;23.314;2023-05-17T02:41:50;94543.88;;;14.87;79.44
70127;BME280;57491;42.694;23.314;2023-05-17T02:44:17;94548.13;;;14.88;77.85
70127;BME280;57491;42.694;23.314;2023-05-17T02:46:44;94546.81;;;14.79;77.30
70127;BME280;57491;42.694;23.314;2023-05-17T02:49:11;94553.94;;;14.71;77.37
70127;BME280;57491;42.694;23.314;2023-05-17T02:51:40;94557.84;;;14.62;76.55
70127;BME280;57491;42.694;23.314;2023-05-17T02:54:07;94560.63;;;14.67;76.69
70127;BME280;57491;42.694;23.314;2023-05-17T02:56:34;94565.41;;;14.70;75.93
70127;BME280;57491;42.694;23.314;2023-05-17T02:59:04;94574.06;;;14.71;76.09
70127;BME280;57491;42.694;23.314;2023-05-17T03:01:31;94580.09;;;14.71;76.27
70127;BME280;57491;42.694;23.314;2023-05-17T03:03:58;94587.13;;;14.71;75.96
70127;BME280;57491;42.694;23.314;2023-05-17T03:06:25;94582.13;;;14.69;75.65
70127;BME280;57491;42.694;23.314;2023-05-17T03:08:54;94590.31;;;14.73;75.23
70127;BME280;57491;42.694;23.314;2023-05-17T03:11:20;94591.50;;;14.77;75.07
70127;BME280;57491;42.694;23.314;2023-05-17T03:13:47;94601.59;;;14.73;75.78
70127;BME280;57491;42.694;23.314;2023-05-17T03:16:16;94598.78;;;14.50;75.30
70127;BME280;57491;42.694;23.314;2023-05-17T03:18:43;94606.22;;;14.53;75.57
70127;BME280;57491;42.694;23.314;2023-05-17T03:21:10;94610.81;;;14.58;76.15
70127;BME280;57491;42.694;23.314;2023-05-17T03:23:37;94616.41;;;14.61;76.07
70127;BME280;57491;42.694;23.314;2023-05-17T03:26:05;94614.78;;;14.60;76.20
70127;BME280;57491;42.694;23.314;2023-05-17T03:28:32;94605.63;;;14.51;75.70
70127;BME280;57491;42.694;23.314;2023-05-17T03:30:59;94604.25;;;14.49;75.58
70127;BME280;57491;42.694;23.314;2023-05-17T03:33:26;94596.44;;;14.42;75.49
70127;BME280;57491;42.694;23.314;2023-05-17T03:35:53;94593.91;;;14.36;75.83
70127;BME280;57491;42.694;23.314;2023-05-17T03:38:20;94590.38;;;14.17;76.32
70127;BME280;57491;42.694;23.314;2023-05-17T03:40:47;94584.81;;;14.07;77.12
70127;BME280;57491;42.694;23.314;2023-05-17T03:43:16;94585.72;;;13.94;77.25
70127;BME280;57491;42.694;23.314;2023-05-17T03:45:43;94585.75;;;13.88;78.16
70127;BME280;57491;42.694;23.314;2023-05-17T03:48:10;94590.41;;;13.79;78.11
70127;BME280;57491;42.694;23.314;2023-05-17T03:50:38;94588.31;;;13.63;78.73
70127;BME280;57491;42.694;23.314;2023-05-17T03:53:05;94592.81;;;13.80;78.55
70127;BME280;57491;42.694;23.314;2023-05-17T03:55:32;94600.06;;;13.78;78.76
70127;BME280;57491;42.694;23.314;2023-05-17T03:57:59;94599.06;;;13.79;79.05
70127;BME280;57491;42.694;23.314;2023-05-17T04:00:28;94604.00;;;13.94;78.50
70127;BME280;57491;42.694;23.314;2023-05-17T04:02:55;94608.97;;;14.02;78.28
70127;BME280;57491;42.694;23.314;2023-05-17T04:05:22;94609.06;;;14.20;77.57
70127;BME280;57491;42.694;23.314;2023-05-17T04:07:49;94614.38;;;14.32;76.90
70127;BME280;57491;42.694;23.314;2023-05-17T04:10:16;94614.47;;;14.19;76.86
70127;BME280;57491;42.694;23.314;2023-05-17T04:12:43;94624.44;;;14.35;76.86
70127;BME280;57491;42.694;23.314;2023-05-17T04:15:10;94613.31;;;14.46;76.71
70127;BME280;57491;42.694;23.314;2023-05-17T04:17:39;94600.50;;;14.38;75.90
70127;BME280;57491;42.694;23.314;2023-05-17T04:20:06;94623.81;;;14.64;75.89
70127;BME280;57491;42.694;23.314;2023-05-17T04:22:33;94606.66;;;14.68;75.48
70127;BME280;57491;42.694;23.314;2023-05-17T04:25:01;94596.16;;;14.75;75.28
70127;BME280;57491;42.694;23.314;2023-05-17T04:27:28;94607.59;;;14.81;75.11
70127;BME280;57491;42.694;23.314;2023-05-17T04:29:55;94608.75;;;14.85;75.02
70127;BME280;57491;42.694;23.314;2023-05-17T04:32:22;94603.06;;;14.88;74.92
70127;BME280;57491;42.694;23.314;2023-05-17T04:34:50;94610.22;;;14.99;74.99
70127;BME280;57491;42.694;23.314;2023-05-17T04:37:17;94603.94;;;15.00;74.53
70127;BME280;57491;42.694;23.314;2023-05-17T04:39:44;94605.66;;;15.12;74.05
70127;BME280;57491;42.694;23.314;2023-05-17T04:42:11;94608.34;;;15.24;73.85
70127;BME280;57491;42.694;23.314;2023-05-17T04:44:38;94607.97;;;15.39;74.02
70127;BME280;57491;42.694;23.314;2023-05-17T04:47:06;94606.72;;;15.59;72.63
70127;BME280;57491;42.694;23.314;2023-05-17T04:49:33;94603.66;;;15.62;72.00
70127;BME280;57491;42.694;23.314;2023-05-17T04:52:01;94606.38;;;15.86;71.38
70127;BME280;57491;42.694;23.314;2023-05-17T04:54:28;94598.94;;;16.01;69.90
70127;BME280;57491;42.694;23.314;2023-05-17T04:56:55;94605.94;;;16.19;70.12
70127;BME280;57491;42.694;23.314;2023-05-17T04:59:23;94603.44;;;16.35;68.82
70127;BME280;57491;42.694;23.314;2023-05-17T05:01:50;94601.75;;;16.29;68.17
70127;BME280;57491;42.694;23.314;2023-05-17T05:04:17;94611.56;;;16.45;67.93
70127;BME280;57491;42.694;23.314;2023-05-17T05:06:44;94611.09;;;16.48;67.24
70127;BME280;57491;42.694;23.314;2023-05-17T05:09:13;94612.53;;;16.63;67.25
70127;BME280;57491;42.694;23.314;2023-05-17T05:11:40;94615.19;;;16.74;66.77
70127;BME280;57491;42.694;23.314;2023-05-17T05:14:07;94614.25;;;16.80;66.29
70127;BME280;57491;42.694;23.314;2023-05-17T05:16:34;94616.09;;;16.91;66.37
70127;BME280;57491;42.694;23.314;2023-05-17T05:19:01;94604.31;;;16.71;66.29
70127;BME280;57491;42.694;23.314;2023-05-17T05:21:29;94623.16;;;16.79;66.67
70127;BME280;57491;42.694;23.314;2023-05-17T05:23:56;94618.94;;;16.90;65.75
70127;BME280;57491;42.694;23.314;2023-05-17T05:26:24;94622.47;;;16.72;66.62
70127;BME280;57491;42.694;23.314;2023-05-17T05:28:51;94613.69;;;16.90;66.39
70127;BME280;57491;42.694;23.314;2023-05-17T05:31:18;94629.66;;;17.23;65.30
70127;BME280;57491;42.694;23.314;2023-05-17T05:33:45;94617.38;;;17.52;64.17
70127;BME280;57491;42.694;23.314;2023-05-17T05:36:12;94619.91;;;17.59;63.71
70127;BME280;57491;42.694;23.314;2023-05-17T05:38:39;94614.16;;;17.73;63.53
70127;BME280;57491;42.694;23.314;2023-05-17T05:41:06;94619.16;;;18.03;62.82
70127;BME280;57491;42.694;23.314;2023-05-17T05:43:35;94618.06;;;18.16;61.81
70127;BME280;57491;42.694;23.314;2023-05-17T05:46:02;94619.38;;;18.47;60.96
70127;BME280;57491;42.694;23.314;2023-05-17T05:48:29;94619.19;;;18.65;59.04
70127;BME280;57491;42.694;23.314;2023-05-17T05:50:56;94623.75;;;18.69;58.69
70127;BME280;57491;42.694;23.314;2023-05-17T05:53:23;94623.41;;;18.83;58.70
70127;BME280;57491;42.694;23.314;2023-05-17T05:55:50;94614.13;;;19.13;58.28
70127;BME280;57491;42.694;23.314;2023-05-17T05:58:17;94621.97;;;19.47;57.90
70127;BME280;57491;42.694;23.314;2023-05-17T06:00:46;94616.53;;;19.53;56.37
70127;BME280;57491;42.694;23.314;2023-05-17T06:03:14;94626.75;;;19.50;55.72
70127;BME280;57491;42.694;23.314;2023-05-17T06:05:41;94631.69;;;19.63;55.10
70127;BME280;57491;42.694;23.314;2023-05-17T06:08:08;94630.06;;;19.40;55.33
70127;BME280;57491;42.694;23.314;2023-05-17T06:10:35;94638.03;;;19.45;55.79
70127;BME280;57491;42.694;23.314;2023-05-17T06:13:02;94613.53;;;19.45;55.55
70127;BME280;57491;42.694;23.314;2023-05-17T06:15:30;94628.56;;;19.66;55.07
70127;BME280;57491;42.694;23.314;2023-05-17T06:17:58;94640.88;;;19.60;55.11
70127;BME280;57491;42.694;23.314;2023-05-17T06:20:25;94620.19;;;19.74;54.10
70127;BME280;57491;42.694;23.314;2023-05-17T06:22:52;94621.81;;;19.75;54.49
70127;BME280;57491;42.694;23.314;2023-05-17T06:25:20;94635.03;;;20.02;53.91
70127;BME280;57491;42.694;23.314;2023-05-17T06:27:47;94637.72;;;20.07;53.77
70127;BME280;57491;42.694;23.314;2023-05-17T06:30:14;94640.50;;;20.22;53.07
70127;BME280;57491;42.694;23.314;2023-05-17T06:32:41;94642.50;;;20.10;52.91
70127;BME280;57491;42.694;23.314;2023-05-17T06:35:10;94645.03;;;19.78;53.64
70127;BME280;57491;42.694;23.314;2023-05-17T06:37:37;94643.06;;;19.69;54.19
70127;BME280;57491;42.694;23.314;2023-05-17T06:40:05;94642.09;;;19.75;54.14
70127;BME280;57491;42.694;23.314;2023-05-17T06:42:33;94628.91;;;19.96;54.18
70127;BME280;57491;42.694;23.314;2023-05-17T06:45:00;94636.25;;;20.16;53.54
70127;BME280;57491;42.694;23.314;2023-05-17T06:47:27;94640.56;;;20.27;52.79
70127;BME280;57491;42.694;23.314;2023-05-17T06:49:54;94633.00;;;20.36;53.31
70127;BME280;57491;42.694;23.314;2023-05-17T06:52:23;94639.84;;;19.83;54.74
70127;BME280;57491;42.694;23.314;2023-05-17T06:54:50;94637.13;;;19.78;54.81
70127;BME280;57491;42.694;23.314;2023-05-17T06:57:17;94639.53;;;19.80;54.86
70127;BME280;57491;42.694;23.314;2023-05-17T06:59:44;94641.00;;;19.92;54.69
70127;BME280;57491;42.694;23.314;2023-05-17T07:02:11;94641.25;;;19.31;57.01
70127;BME280;57491;42.694;23.314;2023-05-17T07:04:38;94652.34;;;19.71;56.26
70127;BME280;57491;42.694;23.314;2023-05-17T07:07:05;94640.06;;;19.82;55.69
70127;BME280;57491;42.694;23.314;2023-05-17T07:09:34;94652.09;;;19.73;56.15
70127;BME280;57491;42.694;23.314;2023-05-17T07:12:01;94645.53;;;19.75;56.20
70127;BME280;57491;42.694;23.314;2023-05-17T07:14:28;94648.19;;;20.24;55.84
70127;BME280;57491;42.694;23.314;2023-05-17T07:16:55;94658.63;;;20.62;53.47
70127;BME280;57491;42.694;23.314;2023-05-17T07:19:25;94651.72;;;20.88;53.08
70127;BME280;57491;42.694;23.314;2023-05-17T07:21:52;94655.63;;;21.17;52.59
70127;BME280;57491;42.694;23.314;2023-05-17T07:24:19;94655.84;;;21.11;51.96
70127;BME280;57491;42.694;23.314;2023-05-17T07:26:48;94660.00;;;21.33;51.68
70127;BME280;57491;42.694;23.314;2023-05-17T07:29:14;94670.78;;;21.27;51.59
70127;BME280;57491;42.694;23.314;2023-05-17T07:31:42;94656.28;;;20.98;52.01
70127;BME280;57491;42.694;23.314;2023-05-17T07:34:09;94663.84;;;21.16;52.26
70127;BME280;57491;42.694;23.314;2023-05-17T07:36:36;94661.09;;;21.06;52.35
70127;BME280;57491;42.694;23.314;2023-05-17T07:39:03;94658.31;;;20.90;52.84
70127;BME280;57491;42.694;23.314;2023-05-17T07:41:30;94660.75;;;20.97;52.10
70127;BME280;57491;42.694;23.314;2023-05-17T07:44:00;94671.09;;;21.04;52.18
70127;BME280;57491;42.694;23.314;2023-05-17T07:46:27;94666.09;;;21.39;51.57
70127;BME280;57491;42.694;23.314;2023-05-17T07:48:54;94667.25;;;21.58;50.83
70127;BME280;57491;42.694;23.314;2023-05-17T07:51:21;94658.81;;;21.66;50.97
70127;BME280;57491;42.694;23.314;2023-05-17T07:53:48;94667.69;;;21.92;50.51
70127;BME280;57491;42.694;23.314;2023-05-17T07:56:15;94652.41;;;22.04;50.67
70127;BME280;57491;42.694;23.314;2023-05-17T07:58:42;94667.63;;;22.49;49.08
70127;BME280;57491;42.694;23.314;2023-05-17T08:01:11;94662.59;;;22.63;49.08
70127;BME280;57491;42.694;23.314;2023-05-17T08:03:38;94662.13;;;22.96;48.54
70127;BME280;57491;42.694;23.314;2023-05-17T08:06:13;94656.00;;;22.76;48.76
70127;BME280;57491;42.694;23.314;2023-05-17T08:08:41;94643.28;;;22.88;47.85
70127;BME280;57491;42.694;23.314;2023-05-17T08:11:09;94659.63;;;22.24;49.43
70127;BME280;57491;42.694;23.314;2023-05-17T08:13:36;94658.56;;;22.35;49.48
70127;BME280;57491;42.694;23.314;2023-05-17T08:16:03;94657.53;;;22.56;48.64
70127;BME280;57491;42.694;23.314;2023-05-17T08:18:34;94658.53;;;22.20;49.31
70127;BME280;57491;42.694;23.314;2023-05-17T08:21:01;94664.44;;;22.42;49.14
70127;BME280;57491;42.694;23.314;2023-05-17T08:23:29;94662.53;;;22.28;49.38
70127;BME280;57491;42.694;23.314;2023-05-17T08:25:56;94659.34;;;22.31;49.91
70127;BME280;57491;42.694;23.314;2023-05-17T08:28:23;94656.50;;;22.57;48.51
70127;BME280;57491;42.694;23.314;2023-05-17T08:30:50;94653.63;;;22.69;48.56
70127;BME280;57491;42.694;23.314;2023-05-17T08:33:17;94637.47;;;23.01;47.85
70127;BME280;57491;42.694;23.314;2023-05-17T08:35:46;94647.25;;;23.31;47.59
70127;BME280;57491;42.694;23.314;2023-05-17T08:38:14;94641.13;;;23.40;46.90
70127;BME280;57491;42.694;23.314;2023-05-17T08:40:41;94646.91;;;23.68;47.05
70127;BME280;57491;42.694;23.314;2023-05-17T08:43:10;94645.81;;;23.79;46.62
70127;BME280;57491;42.694;23.314;2023-05-17T08:45:37;94652.00;;;23.39;46.64
70127;BME280;57491;42.694;23.314;2023-05-17T08:48:05;94653.31;;;22.45;48.68
70127;BME280;57491;42.694;23.314;2023-05-17T08:50:33;94650.84;;;22.13;50.40
70127;BME280;57491;42.694;23.314;2023-05-17T08:53:01;94649.88;;;22.50;49.77
70127;BME280;57491;42.694;23.314;2023-05-17T08:55:30;94644.03;;;22.33;48.93
70127;BME280;57491;42.694;23.314;2023-05-17T08:57:59;94649.91;;;21.83;50.85
70127;BME280;57491;42.694;23.314;2023-05-17T09:00:27;94648.28;;;21.76;52.00
70127;BME280;57491;42.694;23.314;2023-05-17T09:02:57;94641.53;;;21.96;51.26
70127;BME280;57491;42.694;23.314;2023-05-17T09:05:25;94645.78;;;22.07;50.70
70127;BME280;57491;42.694;23.314;2023-05-17T09:07:53;94646.09;;;22.10;50.09
70127;BME280;57491;42.694;23.314;2023-05-17T09:10:22;94643.22;;;22.32;49.88
70127;BME280;57491;42.694;23.314;2023-05-17T09:12:51;94647.44;;;22.28;49.89
70127;BME280;57491;42.694;23.314;2023-05-17T09:15:19;94644.03;;;22.58;49.19
70127;BME280;57491;42.694;23.314;2023-05-17T09:17:52;94633.22;;;22.85;48.83
70127;BME280;57491;42.694;23.314;2023-05-17T09:20:23;94632.44;;;23.04;48.23
70127;BME280;57491;42.694;23.314;2023-05-17T09:22:50;94618.63;;;23.02;48.14
70127;BME280;57491;42.694;23.314;2023-05-17T09:25:18;94629.50;;;23.06;47.97
70127;BME280;57491;42.694;23.314;2023-05-17T09:27:47;94622.59;;;23.15;47.47
70127;BME280;57491;42.694;23.314;2023-05-17T09:30:14;94625.22;;;23.15;48.25
70127;BME280;57491;42.694;23.314;2023-05-17T09:32:44;94633.44;;;22.48;49.26
70127;BME280;57491;42.694;23.314;2023-05-17T09:35:11;94630.84;;;21.80;51.02
70127;BME280;57491;42.694;23.314;2023-05-17T09:37:41;94622.41;;;21.84;51.32
70127;BME280;57491;42.694;23.314;2023-05-17T09:40:10;94619.59;;;22.05;50.99
70127;BME280;57491;42.694;23.314;2023-05-17T09:42:48;94624.16;;;22.60;50.23
70127;BME280;57491;42.694;23.314;2023-05-17T09:45:20;94625.72;;;22.26;50.38
70127;BME280;57491;42.694;23.314;2023-05-17T09:47:48;94624.69;;;22.52;50.26
70127;BME280;57491;42.694;23.314;2023-05-17T09:50:17;94635.69;;;21.94;50.43
70127;BME280;57491;42.694;23.314;2023-05-17T09:52:44;94623.75;;;21.91;50.71
70127;BME280;57491;42.694;23.314;2023-05-17T09:55:12;94637.94;;;22.42;49.86
70127;BME280;57491;42.694;23.314;2023-05-17T09:57:40;94627.84;;;22.34;50.33
70127;BME280;57491;42.694;23.314;2023-05-17T10:00:09;94623.09;;;22.56;49.31
70127;BME280;57491;42.694;23.314;2023-05-17T10:02:39;94622.81;;;22.43;49.86
70127;BME280;57491;42.694;23.314;2023-05-17T10:05:09;94607.06;;;21.86;49.88
70127;BME280;57491;42.694;23.314;2023-05-17T10:07:38;94640.78;;;21.53;50.81
70127;BME280;57491;42.694;23.314;2023-05-17T10:10:07;94613.75;;;21.04;53.28
70127;BME280;57491;42.694;23.314;2023-05-17T10:12:35;94602.19;;;21.10;53.15
70127;BME280;57491;42.694;23.314;2023-05-17T10:15:05;94612.47;;;21.07;53.26
70127;BME280;57491;42.694;23.314;2023-05-17T10:17:37;94609.63;;;20.81;53.37
70127;BME280;57491;42.694;23.314;2023-05-17T10:20:08;94602.31;;;20.88;52.55
70127;BME280;57491;42.694;23.314;2023-05-17T10:22:36;94602.09;;;20.63;52.97
70127;BME280;57491;42.694;23.314;2023-05-17T10:25:04;94594.59;;;20.50;53.85
70127;BME280;57491;42.694;23.314;2023-05-17T10:27:32;94598.75;;;20.41;53.70
70127;BME280;57491;42.694;23.314;2023-05-17T10:30:00;94573.88;;;20.37;53.63
70127;BME280;57491;42.694;23.314;2023-05-17T10:32:27;94581.09;;;20.20;54.73
70127;BME280;57491;42.694;23.314;2023-05-17T10:34:56;94574.84;;;19.72;56.02
70127;BME280;57491;42.694;23.314;2023-05-17T10:37:25;94558.38;;;19.65;56.75
70127;BME280;57491;42.694;23.314;2023-05-17T10:39:55;94533.84;;;19.91;55.71
70127;BME280;57491;42.694;23.314;2023-05-17T10:42:22;94526.03;;;20.01;55.59
70127;BME280;57491;42.694;23.314;2023-05-17T10:44:51;94528.09;;;20.26;54.44
70127;BME280;57491;42.694;23.314;2023-05-17T10:47:19;94517.94;;;20.40;54.28
70127;BME280;57491;42.694;23.314;2023-05-17T10:49:46;94506.38;;;20.46;53.96
70127;BME280;57491;42.694;23.314;2023-05-17T10:52:20;94506.22;;;20.63;53.54
70127;BME280;57491;42.694;23.314;2023-05-17T10:54:48;94494.97;;;20.82;52.99
70127;BME280;57491;42.694;23.314;2023-05-17T10:57:19;94486.28;;;20.87;52.86
70127;BME280;57491;42.694;23.314;2023-05-17T10:59:57;94476.97;;;20.74;53.56
70127;BME280;57491;42.694;23.314;2023-05-17T11:02:26;94484.41;;;20.82;52.46
70127;BME280;57491;42.694;23.314;2023-05-17T11:04:53;94471.66;;;20.69;53.36
70127;BME280;57491;42.694;23.314;2023-05-17T11:07:24;94475.94;;;20.80;53.02
70127;BME280;57491;42.694;23.314;2023-05-17T11:09:54;94485.22;;;20.83;52.17
70127;BME280;57491;42.694;23.314;2023-05-17T11:12:32;94491.84;;;20.90;51.77
70127;BME280;57491;42.694;23.314;2023-05-17T11:15:04;94489.63;;;20.72;52.30
70127;BME280;57491;42.694;23.314;2023-05-17T11:17:34;94508.44;;;20.39;53.14
70127;BME280;57491;42.694;23.314;2023-05-17T11:20:06;94513.25;;;20.47;53.15
70127;BME280;57491;42.694;23.314;2023-05-17T11:22:39;94524.69;;;20.58;53.30
70127;BME280;57491;42.694;23.314;2023-05-17T11:25:09;94532.94;;;20.66;52.91
70127;BME280;57491;42.694;23.314;2023-05-17T11:27:39;94542.09;;;20.27;55.12
70127;BME280;57491;42.694;23.314;2023-05-17T11:30:15;94544.72;;;20.27;55.58
70127;BME280;57491;42.694;23.314;2023-05-17T11:32:48;94545.44;;;20.44;55.14
70127;BME280;57491;42.694;23.314;2023-05-17T11:35:16;94571.47;;;20.30;55.91
70127;BME280;57491;42.694;23.314;2023-05-17T11:37:45;94568.47;;;20.48;55.97
70127;BME280;57491;42.694;23.314;2023-05-17T11:40:12;94566.19;;;20.03;57.07
70127;BME280;57491;42.694;23.314;2023-05-17T11:42:40;94573.78;;;20.00;57.39
70127;BME280;57491;42.694;23.314;2023-05-17T11:45:08;94571.59;;;20.19;57.21
70127;BME280;57491;42.694;23.314;2023-05-17T11:47:38;94576.75;;;20.03;57.71
70127;BME280;57491;42.694;23.314;2023-05-17T11:50:07;94585.06;;;19.95;57.97
70127;BME280;57491;42.694;23.314;2023-05-17T11:52:34;94578.41;;;20.15;56.61
70127;BME280;57491;42.694;23.314;2023-05-17T11:55:02;94597.22;;;20.23;56.53
70127;BME280;57491;42.694;23.314;2023-05-17T11:57:31;94578.97;;;20.17;56.33
70127;BME280;57491;42.694;23.314;2023-05-17T11:59:59;94581.41;;;20.23;56.11
70127;BME280;57491;42.694;23.314;2023-05-17T12:02:28;94569.91;;;20.08;56.15
70127;BME280;57491;42.694;23.314;2023-05-17T12:04:56;94573.66;;;20.12;55.69
70127;BME280;57491;42.694;23.314;2023-05-17T12:07:24;94574.22;;;19.92;55.47
70127;BME280;57491;42.694;23.314;2023-05-17T12:09:51;94577.19;;;19.74;56.20
70127;BME280;57491;42.694;23.314;2023-05-17T12:12:20;94561.63;;;19.50;56.76
70127;BME280;57491;42.694;23.314;2023-05-17T12:14:48;94567.84;;;19.61;57.14
70127;BME280;57491;42.694;23.314;2023-05-17T12:17:22;94571.00;;;19.85;56.58
70127;BME280;57491;42.694;23.314;2023-05-17T12:19:53;94566.75;;;19.84;56.39
70127;BME280;57491;42.694;23.314;2023-05-17T12:22:20;94556.28;;;19.89;56.16
70127;BME280;57491;42.694;23.314;2023-05-17T12:24:48;94554.13;;;20.13;55.58
70127;BME280;57491;42.694;23.314;2023-05-17T12:27:25;94559.41;;;20.39;54.38
70127;BME280;57491;42.694;23.314;2023-05-17T12:29:52;94556.09;;;20.59;53.66
70127;BME280;57491;42.694;23.314;2023-05-17T12:32:19;94570.53;;;20.46;53.90
70127;BME280;57491;42.694;23.314;2023-05-17T12:34:47;94564.47;;;20.46;53.91
70127;BME280;57491;42.694;23.314;2023-05-17T12:37:15;94557.06;;;20.43;53.86
70127;BME280;57491;42.694;23.314;2023-05-17T12:39:42;94552.25;;;20.40;53.60
70127;BME280;57491;42.694;23.314;2023-05-17T12:42:09;94552.91;;;20.52;53.86
70127;BME280;57491;42.694;23.314;2023-05-17T12:44:38;94546.22;;;20.39;54.12
70127;BME280;57491;42.694;23.314;2023-05-17T12:47:06;94557.56;;;20.45;54.87
70127;BME280;57491;42.694;23.314;2023-05-17T12:49:38;94546.38;;;20.65;54.74
70127;BME280;57491;42.694;23.314;2023-05-17T12:52:06;94548.19;;;20.59;54.29
70127;BME280;57491;42.694;23.314;2023-05-17T12:54:33;94544.75;;;20.59;54.48